createdAt,value
2022-08-23T00:01:35.933Z,99.00
2022-08-23T00:04:07.597Z,99.10
2022-08-23T00:06:35.075Z,99.30
2022-08-23T00:09:02.740Z,99.50
2022-08-23T00:11:39.844Z,99.90
2022-08-23T00:14:34.273Z,99.70
2022-08-23T00:17:03.594Z,99.70
2022-08-23T00:19:30.639Z,99.70
2022-08-23T00:21:58.109Z,99.80
2022-08-23T00:24:27.605Z,99.90
2022-08-23T00:27:11.542Z,99.90
2022-08-23T00:29:40.788Z,99.90
2022-08-23T00:32:10.774Z,99.90
2022-08-23T00:34:39.078Z,99.90
2022-08-23T00:37:07.608Z,99.90
2022-08-23T00:39:34.983Z,99.90
2022-08-23T00:42:55.871Z,99.90
2022-08-23T00:45:57.662Z,99.90
2022-08-23T00:48:24.972Z,99.90
2022-08-23T00:51:16.151Z,99.90
2022-08-23T00:53:53.686Z,99.90
2022-08-23T00:56:24.460Z,99.90
2022-08-23T00:58:52.562Z,99.90
2022-08-23T01:01:19.618Z,99.90
2022-08-23T01:04:04.488Z,99.90
2022-08-23T01:06:44.090Z,99.90
2022-08-23T01:09:18.108Z,99.90
2022-08-23T01:12:10.928Z,99.90
2022-08-23T01:14:51.094Z,99.90
2022-08-23T01:17:20.956Z,99.90
2022-08-23T01:20:00.736Z,99.90
2022-08-23T01:22:34.697Z,99.90
2022-08-23T01:25:07.618Z,99.90
2022-08-23T01:27:41.668Z,99.90
2022-08-23T01:30:15.292Z,99.90
2022-08-23T01:32:50.289Z,99.90
2022-08-23T01:37:51.373Z,99.70
2022-08-23T01:40:18.481Z,99.40
2022-08-23T01:42:45.501Z,99.40
2022-08-23T01:45:14.684Z,99.50
2022-08-23T01:47:42.715Z,99.50
2022-08-23T01:50:12.839Z,99.50
2022-08-23T01:52:46.693Z,99.40
2022-08-23T01:55:16.633Z,99.30
2022-08-23T01:57:48.340Z,99.30
2022-08-23T02:00:19.212Z,99.20
2022-08-23T02:02:47.146Z,99.00
2022-08-23T02:05:18.908Z,99.00
2022-08-23T02:07:47.720Z,99.00
2022-08-23T02:10:17.017Z,98.90
2022-08-23T02:12:44.573Z,99.10
2022-08-23T02:15:16.572Z,99.30
2022-08-23T02:17:47.132Z,99.20
2022-08-23T02:20:14.391Z,99.40
2022-08-23T02:22:42.453Z,99.50
2022-08-23T02:25:09.873Z,99.60
2022-08-23T02:27:36.805Z,99.90
2022-08-23T02:34:19.911Z,99.90
2022-08-23T02:36:47.985Z,99.90
2022-08-23T02:39:16.618Z,99.90
2022-08-23T02:41:44.241Z,99.90
2022-08-23T02:44:11.780Z,99.90
2022-08-23T02:46:41.683Z,99.90
2022-08-23T02:49:09.304Z,99.90
2022-08-23T02:51:38.533Z,99.90
2022-08-23T02:54:06.472Z,99.90
2022-08-23T02:56:34.041Z,99.90
2022-08-23T02:59:01.072Z,99.90
2022-08-23T03:01:32.223Z,99.90
2022-08-23T03:04:10.409Z,99.90
2022-08-23T03:06:38.577Z,99.90
2022-08-23T03:09:07.184Z,99.90
2022-08-23T03:11:35.010Z,99.80
2022-08-23T03:14:02.189Z,99.80
2022-08-23T03:16:30.481Z,99.80
2022-08-23T03:18:57.577Z,99.90
2022-08-23T03:21:24.648Z,99.90
2022-08-23T03:23:52.174Z,99.90
2022-08-23T03:26:20.951Z,99.90
2022-08-23T03:28:48.237Z,99.90
2022-08-23T03:31:16.372Z,99.90
2022-08-23T03:33:56.890Z,99.90
2022-08-23T03:36:28.333Z,99.90
2022-08-23T03:38:57.111Z,99.90
2022-08-23T03:41:25.213Z,99.90
2022-08-23T03:43:52.840Z,99.90
2022-08-23T03:46:23.738Z,99.90
2022-08-23T03:48:59.838Z,99.90
2022-08-23T03:51:31.034Z,99.90
2022-08-23T03:54:00.816Z,99.90
2022-08-23T03:56:36.462Z,99.90
2022-08-23T03:59:08.734Z,99.90
2022-08-23T04:01:36.591Z,99.90
2022-08-23T04:04:04.425Z,99.90
2022-08-23T04:06:33.094Z,99.90
2022-08-23T04:09:00.590Z,99.90
2022-08-23T04:11:27.916Z,99.90
2022-08-23T04:14:04.025Z,99.90
2022-08-23T04:16:33.447Z,99.90
2022-08-23T04:19:00.815Z,99.90
2022-08-23T04:21:32.032Z,99.90
2022-08-23T04:23:59.085Z,99.90
2022-08-23T04:26:30.085Z,99.90
2022-08-23T04:28:57.427Z,99.90
2022-08-23T04:31:26.566Z,99.90
2022-08-23T04:33:56.525Z,99.90
2022-08-23T04:36:24.184Z,99.90
2022-08-23T04:38:52.411Z,99.90
2022-08-23T04:41:37.992Z,99.90
2022-08-23T04:44:05.623Z,99.90
2022-08-23T04:46:33.565Z,99.90
2022-08-23T04:49:02.210Z,99.90
2022-08-23T04:51:29.607Z,99.90
2022-08-23T04:53:56.915Z,99.90
2022-08-23T04:56:41.870Z,99.90
2022-08-23T04:59:10.406Z,99.90
2022-08-23T05:01:43.509Z,99.90
2022-08-23T05:04:11.517Z,99.90
2022-08-23T05:06:40.116Z,99.90
2022-08-23T05:09:07.007Z,99.90
2022-08-23T05:11:35.680Z,99.90
2022-08-23T05:14:02.756Z,99.90
2022-08-23T05:16:30.439Z,99.90
2022-08-23T05:19:02.991Z,99.90
2022-08-23T05:21:32.597Z,99.90
2022-08-23T05:24:00.916Z,99.90
2022-08-23T05:26:31.017Z,99.90
2022-08-23T05:28:58.050Z,99.90
2022-08-23T05:31:31.120Z,99.90
2022-08-23T05:34:01.158Z,99.90
2022-08-23T05:36:50.223Z,99.90
2022-08-23T05:39:36.471Z,99.90
2022-08-23T05:42:12.662Z,99.90
2022-08-23T05:44:39.637Z,99.90
2022-08-23T05:47:11.190Z,99.90
2022-08-23T05:49:48.121Z,99.90
2022-08-23T05:52:15.467Z,99.90
2022-08-23T05:54:43.982Z,99.90
2022-08-23T05:57:25.673Z,99.90
2022-08-23T05:59:52.589Z,99.90
2022-08-23T06:02:19.643Z,99.90
2022-08-23T06:04:46.625Z,99.90
2022-08-23T06:07:14.156Z,99.90
2022-08-23T06:09:41.100Z,99.90
2022-08-23T06:12:09.960Z,99.90
2022-08-23T06:14:38.597Z,99.90
2022-08-23T06:17:05.747Z,99.90
2022-08-23T06:19:33.544Z,99.90
2022-08-23T06:22:38.513Z,99.90
2022-08-23T06:25:09.481Z,99.90
2022-08-23T06:27:47.187Z,99.90
2022-08-23T06:30:14.428Z,99.90
2022-08-23T06:32:45.340Z,98.60
2022-08-23T06:35:44.696Z,94.60
2022-08-23T06:38:18.432Z,90.10
2022-08-23T06:40:45.490Z,85.00
2022-08-23T06:43:27.649Z,83.80
2022-08-23T06:46:16.642Z,82.40
2022-08-23T06:48:45.409Z,81.00
2022-08-23T06:51:34.281Z,82.10
2022-08-23T06:54:20.202Z,80.80
2022-08-23T06:57:13.489Z,79.70
2022-08-23T06:59:59.161Z,79.20
2022-08-23T07:02:55.443Z,79.50
2022-08-23T07:05:41.226Z,78.40
2022-08-23T07:08:29.136Z,79.90
2022-08-23T07:10:57.087Z,80.10
2022-08-23T07:13:24.015Z,81.00
2022-08-23T07:15:50.999Z,80.70
2022-08-23T07:18:21.001Z,80.90
2022-08-23T07:20:49.152Z,79.90
2022-08-23T07:23:17.340Z,80.40
2022-08-23T07:25:44.496Z,80.10
2022-08-23T07:28:15.650Z,79.80
2022-08-23T07:30:45.292Z,80.70
2022-08-23T07:33:16.326Z,80.80
2022-08-23T07:36:06.918Z,81.60
2022-08-23T07:38:35.239Z,82.40
2022-08-23T07:41:03.754Z,84.70
2022-08-23T07:43:34.543Z,89.50
2022-08-23T07:46:04.304Z,92.30
2022-08-23T07:48:53.120Z,94.40
2022-08-23T07:51:23.166Z,95.00
2022-08-23T07:53:50.265Z,96.60
2022-08-23T07:56:20.909Z,96.60
2022-08-23T07:59:04.744Z,96.80
2022-08-23T08:02:10.144Z,96.70
2022-08-23T08:04:37.582Z,97.10
2022-08-23T08:07:18.219Z,97.50
2022-08-23T08:09:52.430Z,97.70
2022-08-23T08:12:19.638Z,97.90
2022-08-23T08:14:49.393Z,97.40
2022-08-23T08:17:18.483Z,97.60
2022-08-23T08:20:19.981Z,97.70
2022-08-23T08:23:24.888Z,98.30
2022-08-23T08:26:11.417Z,98.40
2022-08-23T08:28:46.702Z,98.60
2022-08-23T08:31:13.747Z,98.70
2022-08-23T08:33:41.062Z,97.70
2022-08-23T08:36:42.513Z,97.50
2022-08-23T08:39:19.741Z,97.10
2022-08-23T08:42:13.354Z,97.80
2022-08-23T08:44:56.687Z,97.90
2022-08-23T08:47:37.427Z,98.10
2022-08-23T08:50:24.281Z,97.50
2022-08-23T08:53:01.832Z,97.40
2022-08-23T08:55:55.323Z,97.30
2022-08-23T08:58:50.911Z,96.80
2022-08-23T09:01:21.703Z,97.20
2022-08-23T09:03:52.266Z,97.10
2022-08-23T09:06:25.646Z,97.10
2022-08-23T09:09:13.428Z,96.80
2022-08-23T09:11:55.305Z,96.50
2022-08-23T09:14:38.479Z,96.90
2022-08-23T09:17:27.397Z,97.30
2022-08-23T09:20:00.280Z,97.00
2022-08-23T09:22:44.304Z,96.70
2022-08-23T09:29:53.108Z,96.50
2022-08-23T09:32:43.151Z,96.00
2022-08-23T09:35:25.726Z,96.00
2022-08-23T09:38:21.608Z,96.60
2022-08-23T09:40:54.839Z,95.60
2022-08-23T09:43:26.191Z,95.90
2022-08-23T09:45:59.338Z,95.20
2022-08-23T09:48:45.007Z,95.70
2022-08-23T09:51:26.764Z,95.40
2022-08-23T09:54:30.061Z,95.50
2022-08-23T09:57:02.581Z,95.80
2022-08-23T09:59:44.717Z,94.90
2022-08-23T10:02:29.673Z,95.40
2022-08-23T10:05:02.970Z,95.20
2022-08-23T10:07:42.498Z,94.40
2022-08-23T10:10:28.698Z,94.40
2022-08-23T10:13:00.519Z,94.00
2022-08-23T10:16:01.881Z,93.20
2022-08-23T10:18:45.665Z,93.20
2022-08-23T10:21:31.423Z,93.10
2022-08-23T10:24:17.380Z,93.50
2022-08-23T10:27:41.343Z,93.50
2022-08-23T10:30:22.512Z,93.70
2022-08-23T10:33:04.722Z,93.20
2022-08-23T10:35:38.177Z,92.70
2022-08-23T10:38:33.834Z,92.10
2022-08-23T10:41:49.588Z,92.30
2022-08-23T10:44:33.636Z,92.10
2022-08-23T10:47:01.034Z,92.50
2022-08-23T10:49:29.170Z,92.10
2022-08-23T10:51:58.018Z,92.30
2022-08-23T10:54:35.886Z,91.80
2022-08-23T10:57:07.965Z,91.70
2022-08-23T11:04:01.522Z,92.70
2022-08-23T11:06:35.338Z,92.60
2022-08-23T11:09:07.872Z,92.70
2022-08-23T11:11:46.854Z,92.80
2022-08-23T11:14:38.028Z,93.10
2022-08-23T11:17:09.178Z,93.10
2022-08-23T11:19:59.239Z,93.30
2022-08-23T11:22:34.528Z,92.30
2022-08-23T11:25:06.847Z,92.80
2022-08-23T11:27:42.219Z,92.70
2022-08-23T11:30:34.883Z,92.40
2022-08-23T11:33:11.315Z,92.80
2022-08-23T11:35:46.481Z,92.10
2022-08-23T11:38:17.295Z,91.30
2022-08-23T11:40:52.721Z,91.10
2022-08-23T11:43:41.985Z,90.80
2022-08-23T11:50:26.702Z,89.70
2022-08-23T11:53:18.881Z,91.10
2022-08-23T11:56:04.572Z,90.90
2022-08-23T11:59:09.085Z,91.50
2022-08-23T12:01:39.385Z,91.10
2022-08-23T12:04:30.647Z,90.60
2022-08-23T12:07:03.003Z,89.80
2022-08-23T12:09:29.869Z,88.80
2022-08-23T12:11:56.790Z,89.10
2022-08-23T12:14:47.384Z,90.20
2022-08-23T12:17:18.223Z,88.50
2022-08-23T12:19:51.263Z,88.80
2022-08-23T12:22:21.938Z,88.40
2022-08-23T12:29:54.335Z,89.20
2022-08-23T12:32:34.003Z,90.30
2022-08-23T12:35:04.011Z,89.80
2022-08-23T12:37:37.013Z,89.40
2022-08-23T12:44:30.906Z,90.10
2022-08-23T12:47:20.762Z,88.70
2022-08-23T12:50:15.061Z,89.00
2022-08-23T12:52:42.511Z,90.10
2022-08-23T12:55:18.560Z,90.20
2022-08-23T12:57:55.266Z,90.10
2022-08-23T13:00:31.125Z,89.70
2022-08-23T13:03:14.037Z,88.90
2022-08-23T13:05:52.188Z,89.70
2022-08-23T13:08:35.186Z,90.10
2022-08-23T13:11:07.809Z,88.80
2022-08-23T13:13:38.368Z,87.30
2022-08-23T13:16:43.060Z,86.40
2022-08-23T13:19:25.836Z,87.40
2022-08-23T13:22:14.615Z,87.60
2022-08-23T13:24:43.846Z,89.10
2022-08-23T13:27:21.928Z,89.50
2022-08-23T13:30:08.690Z,88.40
2022-08-23T13:32:44.652Z,89.10
2022-08-23T13:35:35.030Z,88.80
2022-08-23T13:38:08.578Z,88.50
2022-08-23T13:41:04.691Z,89.30
2022-08-23T13:44:05.251Z,87.40
2022-08-23T13:46:34.275Z,88.20
2022-08-23T13:49:09.357Z,88.60
2022-08-23T13:51:42.887Z,88.40
2022-08-23T13:54:15.390Z,87.70
2022-08-23T13:56:51.833Z,87.90
2022-08-23T13:59:26.874Z,88.60
2022-08-23T14:02:01.580Z,88.10
2022-08-23T14:04:28.724Z,87.80
2022-08-23T14:06:55.628Z,86.70
2022-08-23T14:09:22.970Z,88.80
2022-08-23T14:11:58.797Z,87.80
2022-08-23T14:14:28.107Z,88.10
2022-08-23T14:16:59.643Z,88.30
2022-08-23T14:26:50.117Z,87.50
2022-08-23T14:33:37.759Z,86.80
2022-08-23T14:36:06.093Z,87.50
2022-08-23T14:38:33.278Z,86.60
2022-08-23T14:45:18.595Z,87.70
2022-08-23T14:47:45.731Z,87.80
2022-08-23T14:54:37.547Z,89.60
2022-08-23T14:57:05.038Z,88.30
2022-08-23T14:59:32.068Z,87.80
2022-08-23T15:01:59.653Z,87.80
2022-08-23T15:04:28.839Z,88.40
2022-08-23T15:07:19.478Z,87.90
2022-08-23T15:09:54.549Z,87.60
2022-08-23T15:15:13.042Z,87.50
2022-08-23T15:17:52.611Z,86.80
2022-08-23T15:20:21.688Z,87.00
2022-08-23T15:27:08.378Z,88.20
2022-08-23T15:29:35.579Z,87.70
2022-08-23T15:32:02.624Z,88.10
2022-08-23T15:34:33.340Z,89.30
2022-08-23T15:37:02.445Z,88.70
2022-08-23T15:39:29.381Z,89.40
2022-08-23T15:41:56.256Z,88.30
2022-08-23T15:44:23.250Z,87.80
2022-08-23T15:46:50.172Z,88.80
2022-08-23T15:53:39.432Z,89.30
2022-08-23T15:56:27.001Z,89.20
2022-08-23T16:03:20.048Z,89.80
2022-08-23T16:10:15.462Z,89.20
2022-08-23T16:12:42.396Z,89.90
2022-08-23T16:15:09.718Z,89.70
2022-08-23T16:21:51.762Z,89.80
2022-08-23T16:24:19.877Z,90.00
2022-08-23T16:26:52.027Z,89.70
2022-08-23T16:29:20.461Z,90.40
2022-08-23T16:36:11.506Z,90.60
2022-08-23T16:42:57.640Z,90.70
2022-08-23T16:45:25.809Z,90.80
2022-08-23T16:47:53.615Z,90.60
2022-08-23T16:50:20.558Z,90.50
2022-08-23T16:52:47.435Z,90.70
2022-08-23T16:55:14.651Z,90.40
2022-08-23T16:57:41.822Z,90.40
2022-08-23T17:00:14.073Z,90.60
2022-08-23T17:02:42.111Z,90.90
2022-08-23T17:05:13.199Z,91.00
2022-08-23T17:07:40.176Z,90.80
2022-08-23T17:10:09.171Z,90.50
2022-08-23T17:12:39.970Z,90.60
2022-08-23T17:15:09.454Z,90.90
2022-08-23T17:17:36.584Z,91.20
2022-08-23T17:20:06.177Z,91.20
2022-08-23T17:22:33.730Z,91.50
2022-08-23T17:29:20.404Z,91.70
2022-08-23T17:36:07.874Z,92.00
2022-08-23T17:38:35.527Z,92.60
2022-08-23T17:41:02.466Z,92.10
2022-08-23T17:47:41.865Z,92.50
2022-08-23T17:50:09.858Z,92.70
2022-08-23T17:52:36.799Z,92.80
2022-08-23T17:55:04.138Z,92.80
2022-08-23T17:57:32.312Z,93.00
2022-08-23T18:08:43.622Z,93.90
2022-08-23T18:11:10.588Z,94.50
2022-08-23T18:13:37.612Z,94.90
2022-08-23T18:16:05.099Z,95.90
2022-08-23T18:18:32.436Z,96.80
2022-08-23T18:21:04.694Z,97.10
2022-08-23T18:23:31.589Z,97.90
2022-08-23T18:30:23.755Z,98.40
2022-08-23T18:32:50.748Z,98.60
2022-08-23T18:35:18.154Z,99.10
2022-08-23T18:41:58.219Z,99.10
2022-08-23T18:44:25.261Z,99.20
2022-08-23T18:46:52.230Z,99.40
2022-08-23T18:49:19.141Z,99.70
2022-08-23T18:51:46.059Z,99.10
2022-08-23T18:54:13.030Z,99.60
2022-08-23T18:56:40.614Z,99.80
2022-08-23T19:03:31.473Z,99.90
2022-08-23T19:05:58.369Z,99.90
2022-08-23T19:08:25.298Z,99.90
2022-08-23T19:10:52.203Z,99.90
2022-08-23T19:13:19.810Z,99.90
2022-08-23T19:15:46.983Z,99.90
2022-08-23T19:18:14.553Z,99.90
2022-08-23T19:24:59.691Z,99.90
2022-08-23T19:27:26.671Z,99.90
2022-08-23T19:29:53.857Z,99.90
2022-08-23T19:36:51.241Z,99.90
2022-08-23T19:39:28.418Z,99.90
2022-08-23T19:41:55.404Z,99.90
2022-08-23T19:44:23.165Z,99.90
2022-08-23T19:46:50.367Z,99.90
2022-08-23T19:49:17.432Z,99.90
2022-08-23T19:51:44.872Z,99.90
2022-08-23T19:58:37.058Z,99.90
2022-08-23T20:01:04.208Z,99.90
2022-08-23T20:03:31.207Z,99.90
2022-08-23T20:05:58.186Z,99.90
2022-08-23T20:08:26.149Z,99.90
2022-08-23T20:10:53.109Z,99.90
2022-08-23T20:13:23.311Z,99.90
2022-08-23T20:15:54.281Z,99.90
2022-08-23T20:23:00.198Z,99.90
2022-08-23T20:25:29.174Z,99.90
2022-08-23T20:27:56.338Z,99.90
2022-08-23T20:30:23.262Z,99.90
2022-08-23T20:32:50.211Z,99.90
2022-08-23T20:35:17.759Z,99.90
2022-08-23T20:37:44.737Z,99.90
2022-08-23T20:40:11.913Z,99.90
2022-08-23T20:47:00.889Z,99.90
2022-08-23T20:49:29.724Z,99.90
2022-08-23T20:51:56.627Z,99.90
2022-08-23T20:58:36.038Z,99.90
2022-08-23T21:01:05.223Z,99.90
2022-08-23T21:03:37.465Z,99.90
2022-08-23T21:06:07.035Z,99.90
2022-08-23T21:08:34.564Z,99.90
2022-08-23T21:11:03.127Z,99.90
2022-08-23T21:13:30.041Z,99.90
2022-08-23T21:15:57.066Z,99.90
2022-08-23T21:18:24.260Z,99.90
2022-08-23T21:20:52.076Z,99.90
2022-08-23T21:23:19.826Z,99.90
2022-08-23T21:25:53.034Z,99.90
2022-08-23T21:28:20.540Z,99.90
2022-08-23T21:30:47.758Z,99.90
2022-08-23T21:33:15.154Z,99.90
2022-08-23T21:35:42.475Z,99.90
2022-08-23T21:38:09.361Z,99.90
2022-08-23T21:40:36.335Z,99.90
2022-08-23T21:43:04.064Z,99.90
2022-08-23T21:45:31.270Z,99.90
2022-08-23T21:47:59.019Z,99.90
2022-08-23T21:50:28.536Z,99.90
2022-08-23T21:57:08.045Z,99.90
2022-08-23T21:59:53.783Z,99.90
2022-08-23T22:02:20.969Z,99.90
2022-08-23T22:04:47.915Z,99.90
2022-08-23T22:07:14.845Z,99.90
2022-08-23T22:09:41.842Z,99.90
2022-08-23T22:12:08.858Z,99.90
2022-08-23T22:14:36.023Z,99.90
2022-08-23T22:17:03.098Z,99.90
2022-08-23T22:19:30.159Z,99.90
2022-08-23T22:21:57.674Z,99.90
2022-08-23T22:24:26.177Z,99.90
2022-08-23T22:26:53.514Z,99.90
2022-08-23T22:29:20.444Z,99.90
2022-08-23T22:31:48.309Z,99.90
2022-08-23T22:34:15.829Z,99.90
2022-08-23T22:36:42.912Z,99.90
2022-08-23T22:39:10.410Z,99.90
2022-08-23T22:41:38.882Z,99.90
2022-08-23T22:44:06.510Z,99.90
2022-08-23T22:46:35.255Z,99.90
2022-08-23T22:49:02.402Z,99.90
2022-08-23T22:51:32.430Z,99.90
2022-08-23T22:54:03.680Z,99.90
2022-08-23T22:56:36.808Z,99.90
2022-08-23T22:59:04.344Z,99.90
2022-08-23T23:01:34.939Z,99.90
2022-08-23T23:04:04.253Z,99.90
2022-08-23T23:06:31.270Z,99.90
2022-08-23T23:08:58.376Z,99.90
2022-08-23T23:11:26.314Z,99.90
2022-08-23T23:13:53.464Z,99.90
2022-08-23T23:16:24.964Z,99.90
2022-08-23T23:19:11.145Z,99.90
2022-08-23T23:21:43.913Z,99.90
2022-08-23T23:24:14.052Z,99.90
2022-08-23T23:26:41.781Z,99.90
2022-08-23T23:29:11.587Z,99.90
2022-08-23T23:31:39.613Z,99.90
2022-08-23T23:34:06.809Z,99.90
2022-08-23T23:36:34.225Z,99.90
2022-08-23T23:39:03.281Z,99.90
2022-08-23T23:41:31.216Z,99.90
2022-08-23T23:43:58.652Z,99.90
2022-08-23T23:46:26.173Z,99.90
2022-08-23T23:48:53.495Z,99.90
2022-08-23T23:51:23.853Z,99.90
2022-08-23T23:53:51.744Z,99.90
2022-08-23T23:56:20.813Z,99.90
2022-08-23T23:58:48.797Z,99.90
